Meteo Giornale » Osservazioni meteo Colombia » Armenia-El Eden
ore: 09:00 - Osservazioni Meteo Armenia-El Eden
Lat. 4° 30' N Lon. 75° 43' W Alt. 1204 metri s.l.m.
23 °C
Nuvoloso
Temp. 24 Ore
19 °C
30 °C
Nord
3.7 Km/h
Dew point 21 °C
Umidità 88 %
Visibilità 10 Km
Il sole sorge alle ore 05:56
Il sole tramonta alle ore 18:08
| Data e Ora | Cielo e Fenomeni | T °C | DP °C | Um. % | Pres. hPa | Vis. km | Vento km/h | |
|---|---|---|---|---|---|---|---|---|
| Oggi h: 09:00 | Nuvoloso | 23 | 21 | 88 | 1019 | 10 | N 3.7 | |
| Oggi h: 08:00 | Nuvoloso | 20 | 19 | 93 | 1019 | 9 | N 1.8 | |
| Oggi h: 07:00 | Nuvoloso | 19 | 17 | 88 | 1018 | 9 | N 3.7 | |
| Oggi h: 06:00 | Nuvoloso | 19 | 17 | 88 | 1018 | 9 | N 3.7 | |
| Oggi h: 05:30 | Molto Nuvoloso | 19 | 17 | 88 | 1018 | 9 | N 3.7 | |
| Oggi h: 05:00 | Coperto | 19 | 17 | 88 | 1018 | 10 | N 1.8 | |
| Oggi h: 04:00 | Sereno | 20 | 17 | 82 | 1017 | 10 | N 3.7 | |
| Oggi h: 03:00 | Coperto | 20 | 17 | 82 | 1017 | 10 | N 5.5 | |
| Oggi h: 02:00 | Coperto | 20 | 17 | 82 | 1018 | 10 | N 3.7 | |
| Oggi h: 01:00 | Coperto | 20 | 17 | 82 | 1018 | 10 | N 1.8 | |
| Oggi h: 00:00 | Molto Nuvoloso | 20 | 17 | 82 | 1019 | 10 | N 3.7 | |
| Ieri h: 23:00 | Nuvoloso | 21 | 17 | 77 | 1018 | 10 | N 1.8 | |
| Ieri h: 22:00 | Nuvoloso | 22 | 17 | 73 | 1018 | 10 | N 1.8 | |
| Ieri h: 21:00 | Nuvoloso | 23 | 17 | 68 | 1018 | 10 | N 5.5 | |
| Ieri h: 20:00 | Nuvoloso | 24 | 17 | 64 | 1017 | 10 | N 5.5 | |
| Ieri h: 19:00 | Nuvoloso | 24 | 17 | 64 | 1015 | 10 | N 3.7 | |
| Ieri h: 18:00 | Nuvoloso | 26 | 17 | 57 | 1014 | 10 | N/NO 9.3 | |
| Ieri h: 17:00 | Nuvoloso | 29 | 17 | 48 | 1013 | 10 | O/SO 7.4 | |
| Ieri h: 16:00 | Nuvoloso | 30 | 18 | 48 | 1013 | 10 | N 5.5 | |
| Ieri h: 15:00 | Nuvoloso | 30 | 19 | 51 | 1014 | 10 | S/SO 7.4 | |
| Ieri h: 14:00 | Nuvoloso | 29 | 19 | 54 | 1015 | 10 | SO 11.1 | |
| Ieri h: 13:00 | Nuvoloso | 29 | 20 | 58 | 1016 | 10 | N 11.1 | |
| Ieri h: 12:00 | Nuvoloso | 27 | 21 | 69 | 1017 | 10 | S/SO 9.3 | |
| Ieri h: 11:00 | Molto Nuvoloso | 26 | 22 | 78 | 1018 | 10 | N 5.5 | |



